createdAt,value
2022-09-06T00:00:53.037Z,101129.00
2022-09-06T00:02:54.853Z,101122.97
2022-09-06T00:04:56.627Z,101124.66
2022-09-06T00:07:06.638Z,101118.56
2022-09-06T00:09:08.342Z,101114.22
2022-09-06T00:11:13.164Z,101115.06
2022-09-06T00:13:15.442Z,101112.47
2022-09-06T00:15:17.572Z,101109.84
2022-09-06T00:17:19.943Z,101118.56
2022-09-06T00:19:21.583Z,101120.28
2022-09-06T00:21:27.099Z,101114.22
2022-09-06T00:23:28.897Z,101123.84
2022-09-06T00:25:30.939Z,101121.22
2022-09-06T00:27:33.117Z,101116.88
2022-09-06T00:29:35.458Z,101118.59
2022-09-06T00:31:37.312Z,101110.81
2022-09-06T00:33:39.503Z,101112.56
2022-09-06T00:35:41.275Z,101116.03
2022-09-06T00:37:42.927Z,101124.75
2022-09-06T00:39:46.833Z,101121.25
2022-09-06T00:41:48.571Z,101116.94
2022-09-06T00:43:50.391Z,101130.00
2022-09-06T00:45:53.991Z,101134.47
2022-09-06T00:47:58.566Z,101126.66
2022-09-06T00:50:02.743Z,101129.28
2022-09-06T00:52:08.059Z,101122.31
2022-09-06T00:54:12.135Z,101123.25
2022-09-06T00:56:14.453Z,101130.16
2022-09-06T00:58:28.262Z,101122.34
2022-09-06T01:00:30.263Z,101121.44
2022-09-06T01:02:32.071Z,101118.84
2022-09-06T01:04:34.454Z,101124.91
2022-09-06T01:06:57.835Z,101115.34
2022-09-06T01:09:13.260Z,101115.41
2022-09-06T01:11:34.515Z,101120.59
2022-09-06T01:14:06.705Z,101121.44
2022-09-06T01:16:48.623Z,101111.94
2022-09-06T01:19:08.313Z,101123.25
2022-09-06T01:21:36.082Z,101122.47
2022-09-06T01:23:46.380Z,101124.22
2022-09-06T01:26:24.711Z,101113.00
2022-09-06T01:28:41.402Z,101103.34
2022-09-06T01:30:57.755Z,101104.25
2022-09-06T01:33:08.974Z,101102.47
2022-09-06T01:35:50.930Z,101108.56
2022-09-06T01:37:53.724Z,101112.97
2022-09-06T01:40:01.873Z,101108.59
2022-09-06T01:42:13.819Z,101109.44
2022-09-06T01:44:15.540Z,101106.81
2022-09-06T01:46:44.554Z,101102.50
2022-09-06T01:49:23.908Z,101098.16
2022-09-06T01:52:06.928Z,101093.78
2022-09-06T01:54:11.644Z,101095.53
2022-09-06T01:56:44.607Z,101090.38
2022-09-06T01:59:09.293Z,101098.16
2022-09-06T02:01:30.269Z,101090.47
2022-09-06T02:03:39.713Z,101092.19
2022-09-06T02:05:53.041Z,101096.59
2022-09-06T02:08:00.287Z,101091.34
2022-09-06T02:10:22.512Z,101085.28
2022-09-06T02:12:26.859Z,101078.31
2022-09-06T02:14:40.990Z,101091.38
2022-09-06T02:16:46.717Z,101085.34
2022-09-06T02:18:54.931Z,101088.00
2022-09-06T02:20:58.894Z,101082.81
2022-09-06T02:23:08.515Z,101081.03
2022-09-06T02:25:16.862Z,101081.94
2022-09-06T02:27:18.768Z,101076.69
2022-09-06T02:29:20.485Z,101075.84
2022-09-06T02:31:40.221Z,101077.63
2022-09-06T02:33:45.767Z,101088.00
2022-09-06T02:35:51.870Z,101086.28
2022-09-06T02:37:54.115Z,101080.19
2022-09-06T02:39:56.157Z,101072.34
2022-09-06T02:41:58.861Z,101071.47
2022-09-06T02:44:00.668Z,101067.16
2022-09-06T02:46:02.556Z,101071.56
2022-09-06T02:48:04.423Z,101057.63
2022-09-06T02:50:08.236Z,101054.09
2022-09-06T02:52:10.411Z,101053.28
2022-09-06T02:54:12.119Z,101045.41
2022-09-06T02:56:19.442Z,101041.06
2022-09-06T02:58:21.263Z,101043.66
2022-09-06T03:00:23.371Z,101043.75
2022-09-06T03:02:35.257Z,101040.25
2022-09-06T03:04:37.147Z,101050.75
2022-09-06T03:06:38.870Z,101046.38
2022-09-06T03:08:40.594Z,101051.69
2022-09-06T03:10:42.555Z,101048.13
2022-09-06T03:12:45.240Z,101030.75
2022-09-06T03:14:46.927Z,101035.09
2022-09-06T03:16:48.665Z,101032.47
2022-09-06T03:18:50.371Z,101025.53
2022-09-06T03:20:53.053Z,101035.13
2022-09-06T03:22:54.741Z,101033.41
2022-09-06T03:24:56.644Z,101031.69
2022-09-06T03:26:58.398Z,101027.31
2022-09-06T03:29:01.696Z,101029.94
2022-09-06T03:31:04.134Z,101030.00
2022-09-06T03:33:06.026Z,101030.84
2022-09-06T03:35:17.390Z,101023.09
2022-09-06T03:37:19.679Z,101008.31
2022-09-06T03:39:21.413Z,101003.06
2022-09-06T03:41:23.359Z,101003.09
2022-09-06T03:43:26.815Z,101004.88
2022-09-06T03:45:29.870Z,100994.41
2022-09-06T03:47:31.757Z,100999.66
2022-09-06T03:49:33.517Z,101002.25
2022-09-06T03:51:37.757Z,101011.84
2022-09-06T03:53:39.439Z,101016.19
2022-09-06T03:55:45.543Z,101011.00
2022-09-06T03:57:47.205Z,101006.56
2022-09-06T03:59:48.847Z,101005.81
2022-09-06T04:01:50.595Z,101002.28
2022-09-06T04:03:52.374Z,101004.03
2022-09-06T04:05:59.984Z,101007.53
2022-09-06T04:08:02.449Z,101006.66
2022-09-06T04:10:04.431Z,101007.53
2022-09-06T04:12:06.433Z,101005.75
2022-09-06T04:14:08.143Z,101004.97
2022-09-06T04:16:10.059Z,101005.81
2022-09-06T04:18:11.770Z,101018.88
2022-09-06T04:20:14.895Z,101021.44
2022-09-06T04:22:16.569Z,101017.16
2022-09-06T04:24:22.157Z,101012.03
2022-09-06T04:26:24.027Z,101010.22
2022-09-06T04:28:26.945Z,101000.69
2022-09-06T04:30:33.492Z,100995.47
2022-09-06T04:32:35.420Z,100997.16
2022-09-06T04:34:37.161Z,100993.66
2022-09-06T04:36:38.886Z,100991.03
2022-09-06T04:38:42.768Z,100988.44
2022-09-06T04:40:44.492Z,100985.81
2022-09-06T04:42:46.323Z,100998.03
2022-09-06T04:44:48.042Z,100979.78
2022-09-06T04:46:50.125Z,100987.59
2022-09-06T04:48:53.880Z,100986.72
2022-09-06T04:50:55.558Z,100994.50
2022-09-06T04:53:05.202Z,100991.91
2022-09-06T04:55:07.147Z,100995.34
2022-09-06T04:57:08.883Z,101004.91
2022-09-06T04:59:10.567Z,101006.69
2022-09-06T05:01:12.872Z,101004.09
2022-09-06T05:03:14.667Z,101001.44
2022-09-06T05:05:16.389Z,101002.31
2022-09-06T05:07:18.083Z,101009.25
2022-09-06T05:09:24.622Z,100995.34
2022-09-06T05:11:26.498Z,100992.75
2022-09-06T05:13:28.203Z,100989.34
2022-09-06T05:15:29.912Z,100989.28
2022-09-06T05:17:37.474Z,100984.06
2022-09-06T05:19:53.622Z,100984.06
2022-09-06T05:21:55.531Z,100992.75
2022-09-06T05:23:58.809Z,100989.28
2022-09-06T05:26:00.619Z,100982.34
2022-09-06T05:28:02.533Z,100991.03
2022-09-06T05:30:05.127Z,100987.56
2022-09-06T05:32:29.806Z,100986.69
2022-09-06T05:34:31.697Z,100992.78
2022-09-06T05:36:33.606Z,100991.06
2022-09-06T05:38:35.311Z,101001.53
2022-09-06T05:40:37.430Z,100998.06
2022-09-06T05:42:41.087Z,101007.63
2022-09-06T05:44:42.798Z,101005.00
2022-09-06T05:46:45.488Z,101009.41
2022-09-06T05:48:55.302Z,101017.22
2022-09-06T05:51:06.424Z,101020.69
2022-09-06T05:53:08.131Z,101014.63
2022-09-06T05:55:10.204Z,101018.13
2022-09-06T05:57:11.858Z,101024.19
2022-09-06T05:59:38.889Z,101021.59
2022-09-06T06:01:54.953Z,101027.66
2022-09-06T06:04:16.865Z,101031.13
2022-09-06T06:06:19.688Z,101030.28
2022-09-06T06:08:21.415Z,101030.25
2022-09-06T06:10:34.324Z,101028.53
2022-09-06T06:12:44.172Z,101038.97
2022-09-06T06:14:45.856Z,101032.84
2022-09-06T06:16:47.621Z,101037.22
2022-09-06T06:18:52.169Z,101045.03
2022-09-06T06:21:25.242Z,101051.09
2022-09-06T06:23:28.080Z,101037.22
2022-09-06T06:26:00.160Z,101045.91
2022-09-06T06:28:01.880Z,101049.34
2022-09-06T06:30:04.951Z,101038.88
2022-09-06T06:32:06.754Z,101051.91
2022-09-06T06:34:08.871Z,101053.63
2022-09-06T06:36:15.250Z,101053.59
2022-09-06T06:38:16.924Z,101051.88
2022-09-06T06:40:20.246Z,101043.97
2022-09-06T06:42:21.900Z,101042.28
2022-09-06T06:44:23.600Z,101042.28
2022-09-06T06:46:28.789Z,101046.59
2022-09-06T06:48:55.047Z,101053.53
2022-09-06T06:50:57.130Z,101051.84
2022-09-06T06:52:58.769Z,101050.19
2022-09-06T06:55:00.470Z,101048.41
2022-09-06T06:57:02.141Z,101053.66
2022-09-06T06:59:06.252Z,101053.66
2022-09-06T07:01:16.294Z,101050.94
2022-09-06T07:03:19.023Z,101044.91
2022-09-06T07:07:57.742Z,101047.41
2022-09-06T07:12:32.471Z,101039.53
2022-09-06T07:14:34.167Z,101040.44
2022-09-06T07:16:36.072Z,101043.06
2022-09-06T07:18:42.161Z,101045.72
2022-09-06T07:25:35.177Z,101053.59
2022-09-06T07:27:52.277Z,101053.56
2022-09-06T07:29:54.007Z,101044.81
2022-09-06T07:32:12.758Z,101045.63
2022-09-06T07:34:36.223Z,101043.06
2022-09-06T07:36:40.954Z,101056.06
2022-09-06T07:38:57.272Z,101057.81
2022-09-06T07:41:01.677Z,101069.06
2022-09-06T07:43:05.803Z,101064.75
2022-09-06T07:45:08.352Z,101068.19
2022-09-06T07:49:34.807Z,101068.28
2022-09-06T07:51:36.910Z,101062.97
2022-09-06T07:54:12.794Z,101069.03
2022-09-06T07:56:17.036Z,101062.94
2022-09-06T07:58:18.839Z,101067.25
2022-09-06T08:00:23.784Z,101068.13
2022-09-06T08:02:28.814Z,101062.03
2022-09-06T08:04:31.225Z,101055.03
2022-09-06T08:09:16.709Z,101051.47
2022-09-06T08:11:19.753Z,101037.47
2022-09-06T08:13:34.112Z,101040.06
2022-09-06T08:15:35.908Z,101032.22
2022-09-06T08:17:37.779Z,101034.00
2022-09-06T08:19:41.851Z,101043.44
2022-09-06T08:21:44.035Z,101031.25
2022-09-06T08:23:48.611Z,101039.94
2022-09-06T08:25:59.978Z,101041.56
2022-09-06T08:28:15.212Z,101031.03
2022-09-06T08:30:16.951Z,101031.97
2022-09-06T08:32:20.354Z,101027.63
2022-09-06T08:34:22.982Z,101035.56
2022-09-06T08:36:32.117Z,101029.31
2022-09-06T08:38:34.872Z,101040.81
2022-09-06T08:40:39.028Z,101056.53
2022-09-06T08:42:41.113Z,101052.97
2022-09-06T08:47:01.076Z,101077.28
2022-09-06T08:49:04.745Z,101079.91
2022-09-06T08:51:44.400Z,101085.13
2022-09-06T08:53:59.551Z,101080.75
2022-09-06T08:56:33.655Z,101066.91
2022-09-06T08:58:59.441Z,101041.56
2022-09-06T09:01:04.864Z,101034.59
2022-09-06T09:03:06.598Z,101042.34
2022-09-06T09:05:20.873Z,101045.91
2022-09-06T09:08:00.009Z,101051.00
2022-09-06T09:10:07.830Z,101051.81
2022-09-06T09:12:29.112Z,101049.09
2022-09-06T09:14:36.648Z,101056.09
2022-09-06T09:16:38.549Z,101054.28
2022-09-06T09:18:44.048Z,101053.50
2022-09-06T09:20:46.120Z,101047.34
2022-09-06T09:22:50.387Z,101032.41
2022-09-06T09:24:52.935Z,101030.50
2022-09-06T09:26:59.427Z,101038.25
2022-09-06T09:29:29.419Z,101045.19
2022-09-06T09:31:47.777Z,101045.97
2022-09-06T09:33:59.531Z,101052.97
2022-09-06T09:36:12.385Z,101039.06
2022-09-06T09:38:31.054Z,101040.75
2022-09-06T09:40:39.793Z,101031.22
2022-09-06T09:42:50.204Z,101027.72
2022-09-06T09:44:52.049Z,101021.63
2022-09-06T09:46:53.860Z,101034.75
2022-09-06T09:49:25.108Z,101046.06
2022-09-06T09:51:28.032Z,101043.47
2022-09-06T09:53:29.675Z,101034.88
2022-09-06T09:55:31.399Z,101044.44
2022-09-06T09:57:48.740Z,101042.69
2022-09-06T10:00:16.771Z,101041.00
2022-09-06T10:02:36.330Z,101051.47
2022-09-06T10:04:51.926Z,101057.56
2022-09-06T10:07:38.158Z,101049.66
2022-09-06T10:09:59.184Z,101051.28
2022-09-06T10:12:06.917Z,101046.06
2022-09-06T10:14:17.240Z,101058.13
2022-09-06T10:16:52.545Z,101046.66
2022-09-06T10:18:54.611Z,101049.13
2022-09-06T10:21:09.959Z,101049.72
2022-09-06T10:26:24.463Z,101038.13
2022-09-06T10:28:31.546Z,101037.22
2022-09-06T10:31:01.237Z,101027.44
2022-09-06T10:33:35.960Z,101028.28
2022-09-06T10:35:40.247Z,101036.78
2022-09-06T10:38:03.808Z,101021.63
2022-09-06T10:40:17.908Z,101021.31
2022-09-06T10:42:47.303Z,101021.03
2022-09-06T10:45:16.188Z,101021.13
2022-09-06T10:47:18.511Z,101033.44
2022-09-06T10:49:20.392Z,101019.66
2022-09-06T10:51:37.657Z,101030.88
2022-09-06T10:54:17.288Z,101030.31
2022-09-06T10:57:09.352Z,101036.13
2022-09-06T11:02:01.847Z,101026.53
2022-09-06T11:04:13.128Z,101028.56
2022-09-06T11:06:20.731Z,101020.47
2022-09-06T11:09:17.128Z,101016.19
2022-09-06T11:11:30.204Z,101018.00
2022-09-06T11:13:32.720Z,101003.44
2022-09-06T11:15:46.025Z,101004.75
2022-09-06T11:18:13.905Z,100993.56
2022-09-06T11:20:36.339Z,100989.00
2022-09-06T11:22:59.262Z,100975.78
2022-09-06T11:25:19.252Z,100986.03
2022-09-06T11:27:40.487Z,100983.22
2022-09-06T11:29:59.948Z,100989.38
2022-09-06T11:32:20.567Z,100978.72
2022-09-06T11:34:27.714Z,100989.38
2022-09-06T11:37:07.595Z,100974.47
2022-09-06T11:39:10.186Z,100962.25
2022-09-06T11:41:30.073Z,100974.19
2022-09-06T11:43:47.736Z,100977.41
2022-09-06T11:45:51.921Z,100978.03
2022-09-06T11:47:56.243Z,100974.59
2022-09-06T11:49:58.592Z,100986.09
2022-09-06T11:52:00.871Z,100979.75
2022-09-06T11:54:11.581Z,100975.75
2022-09-06T11:56:24.265Z,100982.06
2022-09-06T11:58:31.641Z,100973.34
2022-09-06T12:00:34.005Z,100975.63
2022-09-06T12:02:44.103Z,100967.59
2022-09-06T12:05:07.540Z,100978.81
2022-09-06T12:07:13.484Z,100966.69
2022-09-06T12:09:47.563Z,100960.94
2022-09-06T12:11:49.315Z,100977.41
2022-09-06T12:13:59.514Z,100977.28
2022-09-06T12:16:01.645Z,100966.66
2022-09-06T12:18:03.361Z,100968.06
2022-09-06T12:20:13.451Z,100975.63
2022-09-06T12:22:46.918Z,100978.66
2022-09-06T12:24:48.665Z,100959.97
2022-09-06T12:27:36.134Z,100972.25
2022-09-06T12:29:38.496Z,100971.63
2022-09-06T12:31:43.927Z,100971.69
2022-09-06T12:33:48.262Z,100962.09
2022-09-06T12:35:59.279Z,100951.59
2022-09-06T12:38:05.313Z,100963.94
2022-09-06T12:40:12.191Z,100949.91
2022-09-06T12:42:15.136Z,100965.66
2022-09-06T12:44:45.305Z,100946.81
2022-09-06T12:46:50.152Z,100938.88
2022-09-06T12:49:09.812Z,100934.09
2022-09-06T12:51:20.211Z,100942.78
2022-09-06T12:53:37.800Z,100925.47
2022-09-06T12:55:39.461Z,100923.94
2022-09-06T12:57:49.630Z,100925.78
2022-09-06T12:59:54.244Z,100925.66
2022-09-06T13:02:05.798Z,100921.97
2022-09-06T13:05:07.755Z,100924.28
2022-09-06T13:07:22.424Z,100926.03
2022-09-06T13:09:27.112Z,100917.50
2022-09-06T13:11:36.761Z,100932.25
2022-09-06T13:13:47.779Z,100915.22
2022-09-06T13:15:49.882Z,100908.44
2022-09-06T13:17:53.901Z,100898.13
2022-09-06T13:19:56.509Z,100926.13
2022-09-06T13:22:07.666Z,100913.34
2022-09-06T13:25:03.663Z,100911.94
2022-09-06T13:27:46.187Z,100901.00
2022-09-06T13:29:59.727Z,100903.28
2022-09-06T13:32:02.391Z,100898.94
2022-09-06T13:34:04.219Z,100894.59
2022-09-06T13:36:18.960Z,100913.63
2022-09-06T13:38:34.655Z,100896.59
2022-09-06T13:41:09.735Z,100912.97
2022-09-06T13:43:11.585Z,100903.41
2022-09-06T13:45:28.966Z,100895.41
2022-09-06T13:47:30.705Z,100890.66
2022-09-06T13:49:33.136Z,100882.56
2022-09-06T13:51:35.554Z,100877.31
2022-09-06T13:53:37.272Z,100873.69
2022-09-06T13:55:58.123Z,100887.75
2022-09-06T13:57:59.852Z,100872.38
2022-09-06T14:00:01.618Z,100869.50
2022-09-06T14:02:10.021Z,100895.91
2022-09-06T14:04:15.742Z,100895.09
2022-09-06T14:06:18.438Z,100901.19
2022-09-06T14:08:20.336Z,100904.03
2022-09-06T14:10:23.946Z,100927.41
2022-09-06T14:12:27.481Z,100945.06
2022-09-06T14:14:29.845Z,100950.50
2022-09-06T14:16:32.262Z,100947.34
2022-09-06T14:18:34.057Z,100918.75
2022-09-06T14:20:35.767Z,100918.19
2022-09-06T14:22:51.467Z,100923.63
2022-09-06T14:24:55.277Z,100921.13
2022-09-06T14:27:14.836Z,100915.91
2022-09-06T14:29:19.965Z,100907.25
2022-09-06T14:31:39.792Z,100915.25
2022-09-06T14:33:41.852Z,100918.75
2022-09-06T14:35:49.687Z,100902.03
2022-09-06T14:37:51.511Z,100900.19
2022-09-06T14:39:53.726Z,100907.97
2022-09-06T14:41:55.501Z,100899.88
2022-09-06T14:44:21.243Z,100897.41
2022-09-06T14:46:25.075Z,100890.28
2022-09-06T14:48:30.234Z,100897.19
2022-09-06T14:50:32.462Z,100898.38
2022-09-06T14:52:34.341Z,100896.41
2022-09-06T14:54:36.111Z,100892.06
2022-09-06T14:56:44.245Z,100899.84
2022-09-06T14:58:58.707Z,100891.81
2022-09-06T15:01:15.795Z,100883.09
2022-09-06T15:03:22.820Z,100883.88
2022-09-06T15:05:24.743Z,100885.69
2022-09-06T15:07:27.206Z,100887.38
2022-09-06T15:09:28.966Z,100868.16
2022-09-06T15:11:38.144Z,100867.03
2022-09-06T15:13:52.757Z,100864.06
2022-09-06T15:15:57.522Z,100854.72
2022-09-06T15:17:59.402Z,100843.59
2022-09-06T15:20:01.366Z,100849.06
2022-09-06T15:22:23.327Z,100838.69
2022-09-06T15:24:25.435Z,100830.06
2022-09-06T15:26:35.278Z,100820.94
2022-09-06T15:28:42.111Z,100819.16
2022-09-06T15:31:02.007Z,100822.63
2022-09-06T15:33:15.049Z,100813.84
2022-09-06T15:35:17.053Z,100818.72
2022-09-06T15:37:18.696Z,100807.63
2022-09-06T15:39:20.558Z,100803.53
2022-09-06T15:41:25.371Z,100794.94
2022-09-06T15:43:27.149Z,100788.19
2022-09-06T15:45:29.759Z,100798.06
2022-09-06T15:47:31.613Z,100804.50
2022-09-06T15:49:48.038Z,100798.50
2022-09-06T15:51:49.799Z,100825.25
2022-09-06T15:54:00.835Z,100813.75
2022-09-06T15:56:03.861Z,100824.41
2022-09-06T15:58:05.838Z,100814.06
2022-09-06T16:00:08.239Z,100812.81
2022-09-06T16:02:10.942Z,100810.22
2022-09-06T16:04:12.671Z,100809.66
2022-09-06T16:08:29.674Z,100816.63
2022-09-06T16:10:31.557Z,100822.16
2022-09-06T16:12:33.229Z,100821.47
2022-09-06T16:14:45.926Z,100832.28
2022-09-06T16:16:59.232Z,100825.47
2022-09-06T16:19:01.096Z,100824.88
2022-09-06T16:21:25.939Z,100819.69
2022-09-06T16:23:27.644Z,100813.78
2022-09-06T16:25:30.595Z,100816.44
2022-09-06T16:27:41.263Z,100819.56
2022-09-06T16:29:42.966Z,100809.91
2022-09-06T16:31:45.033Z,100812.31
2022-09-06T16:33:49.079Z,100802.75
2022-09-06T16:35:50.920Z,100804.44
2022-09-06T16:38:09.184Z,100804.44
2022-09-06T16:40:11.552Z,100803.41
2022-09-06T16:42:13.645Z,100807.78
2022-09-06T16:44:25.989Z,100805.34
2022-09-06T16:46:31.299Z,100804.31
2022-09-06T16:48:33.732Z,100793.84
2022-09-06T16:50:36.023Z,100799.94
2022-09-06T16:52:41.195Z,100801.00
2022-09-06T16:54:43.009Z,100804.53
2022-09-06T16:56:45.046Z,100799.25
2022-09-06T16:58:57.680Z,100807.00
2022-09-06T17:01:06.013Z,100803.47
2022-09-06T17:03:08.110Z,100800.94
2022-09-06T17:05:11.977Z,100805.31
2022-09-06T17:07:13.811Z,100803.81
2022-09-06T17:09:19.454Z,100797.59
2022-09-06T17:11:24.402Z,100801.84
2022-09-06T17:13:26.532Z,100799.31
2022-09-06T17:16:01.291Z,100806.19
2022-09-06T17:18:03.010Z,100814.88
2022-09-06T17:20:05.565Z,100819.50
2022-09-06T17:22:10.514Z,100830.78
2022-09-06T17:24:13.614Z,100827.56
2022-09-06T17:26:16.966Z,100827.56
2022-09-06T17:28:19.379Z,100832.81
2022-09-06T17:30:26.501Z,100822.47
2022-09-06T17:32:38.742Z,100822.59
2022-09-06T17:34:44.247Z,100830.41
2022-09-06T17:36:46.087Z,100835.81
2022-09-06T17:38:52.824Z,100821.97
2022-09-06T17:41:00.023Z,100819.44
2022-09-06T17:43:01.907Z,100823.72
2022-09-06T17:45:04.137Z,100835.13
2022-09-06T17:47:15.065Z,100841.31
2022-09-06T17:49:29.247Z,100832.59
2022-09-06T17:51:31.576Z,100835.22
2022-09-06T17:53:34.166Z,100834.38
2022-09-06T17:55:41.072Z,100832.66
2022-09-06T17:57:43.145Z,100833.50
2022-09-06T17:59:45.226Z,100835.34
2022-09-06T18:01:46.967Z,100823.09
2022-09-06T18:03:49.127Z,100824.00
2022-09-06T18:05:51.130Z,100821.38
2022-09-06T18:07:52.808Z,100818.88
2022-09-06T18:09:54.499Z,100843.22
2022-09-06T18:11:57.200Z,100830.91
2022-09-06T18:14:00.027Z,100823.94
2022-09-06T18:16:03.678Z,100818.72
2022-09-06T18:18:37.070Z,100815.16
2022-09-06T18:20:50.857Z,100824.69
2022-09-06T18:23:01.520Z,100827.38
2022-09-06T18:25:03.831Z,100825.78
2022-09-06T18:27:05.679Z,100832.75
2022-09-06T18:29:11.738Z,100827.47
2022-09-06T18:31:20.273Z,100828.53
2022-09-06T18:33:29.262Z,100824.94
2022-09-06T18:35:30.997Z,100823.22
2022-09-06T18:37:36.231Z,100826.69
2022-09-06T18:39:38.319Z,100818.81
2022-09-06T18:41:58.918Z,100815.34
2022-09-06T18:44:02.909Z,100798.81
2022-09-06T18:46:10.066Z,100783.06
2022-09-06T18:48:11.762Z,100769.06
2022-09-06T18:50:13.520Z,100762.22
2022-09-06T18:52:15.340Z,100757.81
2022-09-06T18:54:17.459Z,100750.06
2022-09-06T18:56:20.231Z,100756.09
2022-09-06T18:58:22.005Z,100763.81
2022-09-06T19:00:26.550Z,100782.88
2022-09-06T19:02:33.005Z,100798.72
2022-09-06T19:04:34.839Z,100805.03
2022-09-06T19:06:38.321Z,100805.81
2022-09-06T19:08:40.962Z,100809.28
2022-09-06T19:10:43.146Z,100832.91
2022-09-06T19:13:11.661Z,100837.38
2022-09-06T19:15:13.503Z,100834.88
2022-09-06T19:17:15.218Z,100844.31
2022-09-06T19:19:17.373Z,100840.94
2022-09-06T19:21:19.916Z,100839.25
2022-09-06T19:23:22.631Z,100837.41
2022-09-06T19:25:24.867Z,100849.78
2022-09-06T19:27:27.426Z,100847.25
2022-09-06T19:29:29.218Z,100847.38
2022-09-06T19:31:35.556Z,100852.56
2022-09-06T19:33:37.277Z,100846.63
2022-09-06T19:35:55.679Z,100851.13
2022-09-06T19:38:01.066Z,100857.91
2022-09-06T19:40:03.253Z,100865.75
2022-09-06T19:42:05.959Z,100863.25
2022-09-06T19:44:09.044Z,100856.25
2022-09-06T19:46:12.088Z,100861.53
2022-09-06T19:48:13.809Z,100857.28
2022-09-06T19:50:16.075Z,100852.06
2022-09-06T19:52:18.479Z,100857.31
2022-09-06T19:54:20.367Z,100855.69
2022-09-06T19:56:26.154Z,100857.41
2022-09-06T19:58:29.522Z,100861.75
2022-09-06T20:00:35.302Z,100852.25
2022-09-06T20:02:38.793Z,100851.41
2022-09-06T20:04:41.550Z,100852.34
2022-09-06T20:06:43.471Z,100838.41
2022-09-06T20:08:50.673Z,100851.34
2022-09-06T20:10:56.673Z,100859.16
2022-09-06T20:12:58.355Z,100864.44
2022-09-06T20:15:00.159Z,100855.00
2022-09-06T20:17:29.302Z,100850.59
2022-09-06T20:19:23.888Z,100853.31
2022-09-06T20:21:27.280Z,100849.84
2022-09-06T20:23:30.193Z,100854.19
2022-09-06T20:25:32.092Z,100854.19
2022-09-06T20:27:33.751Z,100856.03
2022-09-06T20:29:38.615Z,100847.41
2022-09-06T20:31:40.499Z,100845.63
2022-09-06T20:33:45.899Z,100834.47
2022-09-06T20:35:59.498Z,100834.44
2022-09-06T20:38:17.968Z,100841.34
2022-09-06T20:40:19.788Z,100840.50
2022-09-06T20:42:21.486Z,100846.75
2022-09-06T20:44:24.970Z,100840.63
2022-09-06T20:46:29.307Z,100845.84
2022-09-06T20:48:35.127Z,100836.25
2022-09-06T20:50:37.618Z,100851.00
2022-09-06T20:52:44.989Z,100844.09
2022-09-06T20:54:46.680Z,100846.63
2022-09-06T20:56:48.334Z,100847.56
2022-09-06T20:58:52.445Z,100862.25
2022-09-06T21:01:00.034Z,100854.41
2022-09-06T21:03:01.858Z,100861.38
2022-09-06T21:05:05.339Z,100858.75
2022-09-06T21:07:07.855Z,100860.56
2022-09-06T21:09:13.331Z,100869.28
2022-09-06T21:11:15.053Z,100851.00
2022-09-06T21:13:16.731Z,100864.09
2022-09-06T21:15:23.770Z,100864.00
2022-09-06T21:17:25.443Z,100870.09
2022-09-06T21:19:27.133Z,100867.44
2022-09-06T21:21:30.620Z,100869.19
2022-09-06T21:23:34.963Z,100856.22
2022-09-06T21:25:36.805Z,100862.25
2022-09-06T21:27:38.707Z,100869.25
2022-09-06T21:29:40.366Z,100864.03
2022-09-06T21:31:42.068Z,100866.63
2022-09-06T21:34:06.469Z,100871.88
2022-09-06T21:36:17.621Z,100858.84
2022-09-06T21:38:19.309Z,100857.09
2022-09-06T21:40:21.070Z,100859.75
2022-09-06T21:42:23.082Z,100854.63
2022-09-06T21:44:26.184Z,100851.97
2022-09-06T21:46:34.342Z,100850.25
2022-09-06T21:48:40.618Z,100859.78
2022-09-06T21:50:45.793Z,100851.13
2022-09-06T21:52:47.445Z,100853.72
2022-09-06T21:54:49.164Z,100843.28
2022-09-06T21:56:50.901Z,100843.31
2022-09-06T21:58:55.535Z,100838.97
2022-09-06T22:00:59.494Z,100846.78
2022-09-06T22:03:01.296Z,100840.66
2022-09-06T22:05:06.603Z,100848.53
2022-09-06T22:07:08.281Z,100846.75
2022-09-06T22:09:11.894Z,100849.38
2022-09-06T22:11:20.588Z,100846.78
2022-09-06T22:13:22.245Z,100851.16
2022-09-06T22:15:23.995Z,100853.75
2022-09-06T22:17:25.713Z,100864.13
2022-09-06T22:19:27.369Z,100863.31
2022-09-06T22:21:29.084Z,100860.66
2022-09-06T22:23:31.373Z,100866.78
2022-09-06T22:25:33.913Z,100856.38
2022-09-06T22:27:35.580Z,100846.78
2022-09-06T22:29:37.234Z,100838.19
2022-09-06T22:31:39.610Z,100840.72
2022-09-06T22:33:41.414Z,100839.94
2022-09-06T22:35:43.107Z,100835.59
2022-09-06T22:37:44.781Z,100838.16
2022-09-06T22:39:48.092Z,100839.91
2022-09-06T22:41:49.820Z,100839.03
2022-09-06T22:43:54.857Z,100844.28
2022-09-06T22:46:07.413Z,100845.16
2022-09-06T22:48:09.473Z,100845.16
2022-09-06T22:50:12.419Z,100834.75
2022-09-06T22:52:14.794Z,100844.31
2022-09-06T22:54:16.503Z,100835.63
2022-09-06T22:56:18.254Z,100846.88
2022-09-06T22:58:19.947Z,100839.97
2022-09-06T23:00:27.486Z,100834.78
2022-09-06T23:02:29.259Z,100833.06
2022-09-06T23:04:32.674Z,100837.34
2022-09-06T23:06:35.093Z,100826.97
2022-09-06T23:08:38.785Z,100833.91
2022-09-06T23:10:42.149Z,100827.78
2022-09-06T23:12:51.266Z,100827.75
2022-09-06T23:14:53.631Z,100826.97
2022-09-06T23:16:55.342Z,100815.66
2022-09-06T23:18:57.103Z,100816.53
2022-09-06T23:21:10.401Z,100816.53
2022-09-06T23:23:12.098Z,100820.00
2022-09-06T23:25:14.760Z,100818.28
2022-09-06T23:27:18.794Z,100802.59
2022-09-06T23:29:20.585Z,100811.38
2022-09-06T23:31:24.325Z,100809.63
2022-09-06T23:33:25.975Z,100807.91
2022-09-06T23:35:27.691Z,100800.06
2022-09-06T23:38:02.585Z,100807.00
2022-09-06T23:40:08.843Z,100792.22
2022-09-06T23:42:10.824Z,100803.47
2022-09-06T23:44:13.686Z,100806.94
2022-09-06T23:46:16.376Z,100795.63
2022-09-06T23:48:18.304Z,100791.31
2022-09-06T23:50:20.255Z,100790.41
2022-09-06T23:52:21.933Z,100782.66
2022-09-06T23:54:23.651Z,100793.03
2022-09-06T23:56:25.497Z,100794.81
2022-09-06T23:58:27.285Z,100796.53
